createdAt,value
2022-12-26T00:03:13.584Z,99819.97
2022-12-26T00:08:10.067Z,99816.59
2022-12-26T00:13:39.501Z,99817.53
2022-12-26T00:18:22.914Z,99814.19
2022-12-26T00:23:19.249Z,99804.53
2022-12-26T00:28:15.638Z,99812.50
2022-12-26T00:33:12.237Z,99830.25
2022-12-26T00:38:08.624Z,99833.91
2022-12-26T00:43:04.971Z,99832.22
2022-12-26T00:48:01.372Z,99831.25
2022-12-26T00:52:57.745Z,99834.88
2022-12-26T00:57:54.079Z,99821.97
2022-12-26T01:02:51.223Z,99817.78
2022-12-26T01:08:19.721Z,99813.44
2022-12-26T01:13:04.252Z,99819.81
2022-12-26T01:18:01.257Z,99825.03
2022-12-26T01:22:57.702Z,99817.16
2022-12-26T01:27:54.080Z,99836.75
2022-12-26T01:32:50.454Z,99836.03
2022-12-26T01:37:46.780Z,99826.41
2022-12-26T01:42:44.226Z,99840.78
2022-12-26T01:47:49.285Z,99849.84
2022-12-26T01:52:48.722Z,99849.97
2022-12-26T01:57:50.201Z,99852.63
2022-12-26T02:03:05.918Z,99855.16
2022-12-26T02:08:09.852Z,99849.38
2022-12-26T02:13:06.685Z,99843.50
2022-12-26T02:18:03.141Z,99847.25
2022-12-26T02:23:30.943Z,99830.59
2022-12-26T02:28:42.771Z,99826.00
2022-12-26T02:34:04.421Z,99827.94
2022-12-26T02:39:44.297Z,99827.22
2022-12-26T02:45:11.565Z,99831.13
2022-12-26T02:50:53.854Z,99855.88
2022-12-26T02:56:16.103Z,99840.88
2022-12-26T03:01:48.767Z,99831.22
2022-12-26T03:07:13.223Z,99830.38
2022-12-26T03:12:43.218Z,99828.69
2022-12-26T03:17:46.803Z,99835.56
2022-12-26T03:22:54.633Z,99830.97
2022-12-26T03:27:51.136Z,99816.97
2022-12-26T03:32:47.543Z,99828.19
2022-12-26T03:37:52.760Z,99846.31
2022-12-26T03:43:28.705Z,99854.28
2022-12-26T03:48:54.091Z,99855.25
2022-12-26T03:54:17.331Z,99849.34
2022-12-26T03:59:39.558Z,99853.84
2022-12-26T04:04:58.382Z,99847.91
2022-12-26T04:10:22.086Z,99861.59
2022-12-26T04:16:12.888Z,99861.59
2022-12-26T04:21:37.190Z,99875.84
2022-12-26T04:27:03.900Z,99874.41
2022-12-26T04:32:32.243Z,99869.09
2022-12-26T04:37:49.102Z,99866.56
2022-12-26T04:43:46.562Z,99865.84
2022-12-26T04:48:41.720Z,99870.31
2022-12-26T04:53:38.212Z,99873.94
2022-12-26T04:58:34.621Z,99890.81
2022-12-26T05:03:49.810Z,99889.88
2022-12-26T05:09:06.144Z,99903.28
2022-12-26T05:14:02.585Z,99903.41
2022-12-26T05:19:17.780Z,99909.81
2022-12-26T05:24:32.880Z,99908.22
2022-12-26T05:29:29.495Z,99906.41
2022-12-26T05:34:25.867Z,99896.16
2022-12-26T05:39:22.981Z,99906.34
2022-12-26T05:44:19.370Z,99899.31
2022-12-26T05:49:15.769Z,99895.22
2022-12-26T05:54:12.184Z,99886.78
2022-12-26T05:59:09.784Z,99883.44
2022-12-26T06:04:06.113Z,99885.81
2022-12-26T06:09:02.495Z,99890.88
2022-12-26T06:13:59.975Z,99887.63
2022-12-26T06:18:56.589Z,99884.38
2022-12-26T06:23:52.949Z,99877.53
2022-12-26T06:28:49.559Z,99880.03
2022-12-26T06:33:46.475Z,99876.69
2022-12-26T06:38:43.480Z,99862.66
2022-12-26T06:43:39.899Z,99865.56
2022-12-26T06:48:39.608Z,99848.22
2022-12-26T06:53:36.359Z,99850.28
2022-12-26T06:58:32.796Z,99851.13
2022-12-26T07:03:29.173Z,99843.63
2022-12-26T07:08:25.511Z,99842.44
2022-12-26T07:13:22.002Z,99868.25
2022-12-26T07:18:18.500Z,99882.22
2022-12-26T07:23:15.301Z,99880.31
2022-12-26T07:28:11.643Z,99890.19
2022-12-26T07:33:07.967Z,99880.78
2022-12-26T07:38:04.365Z,99883.16
2022-12-26T07:43:00.889Z,99878.59
2022-12-26T07:47:58.657Z,99879.81
2022-12-26T07:52:55.403Z,99891.97
2022-12-26T07:57:52.436Z,99888.47
2022-12-26T08:02:50.765Z,99884.25
2022-12-26T08:07:48.510Z,99889.72
2022-12-26T08:12:44.842Z,99896.69
2022-12-26T08:17:41.226Z,99911.41
2022-12-26T08:22:37.557Z,99903.19
2022-12-26T08:27:33.942Z,99895.13
2022-12-26T08:32:30.651Z,99886.81
2022-12-26T08:37:27.040Z,99896.31
2022-12-26T08:42:23.397Z,99888.97
2022-12-26T08:47:19.725Z,99912.16
2022-12-26T08:52:16.069Z,99909.13
2022-12-26T08:57:12.421Z,99899.84
2022-12-26T09:02:11.558Z,99904.28
2022-12-26T09:07:09.112Z,99903.19
2022-12-26T09:12:05.647Z,99901.28
2022-12-26T09:17:02.086Z,99915.03
2022-12-26T09:22:18.163Z,99918.75
2022-12-26T09:27:14.576Z,99915.72
2022-12-26T09:32:10.930Z,99905.34
2022-12-26T09:37:07.460Z,99903.13
2022-12-26T09:42:18.182Z,99905.72
2022-12-26T09:47:40.054Z,99903.06
2022-12-26T09:52:45.243Z,99899.44
2022-12-26T09:57:50.305Z,99892.94
2022-12-26T10:02:52.923Z,99889.19
2022-12-26T10:08:12.061Z,99889.34
2022-12-26T10:13:32.347Z,99877.22
2022-12-26T10:18:50.014Z,99865.28
2022-12-26T10:23:54.775Z,99891.41
2022-12-26T10:28:54.411Z,99886.00
2022-12-26T10:34:00.662Z,99889.63
2022-12-26T10:38:59.623Z,99905.59
2022-12-26T10:43:56.300Z,99910.34
2022-12-26T10:48:53.809Z,99908.91
2022-12-26T10:53:52.539Z,99910.03
2022-12-26T10:59:01.163Z,99911.94
2022-12-26T11:04:00.250Z,99904.97
2022-12-26T11:08:57.100Z,99921.63
2022-12-26T11:14:01.704Z,99903.84
2022-12-26T11:18:59.084Z,99910.03
2022-12-26T11:24:10.768Z,99910.03
2022-12-26T11:29:15.026Z,99903.00
2022-12-26T11:34:19.491Z,99905.25
2022-12-26T11:39:24.824Z,99899.38
2022-12-26T11:44:33.527Z,99901.06
2022-12-26T11:49:34.898Z,99899.25
2022-12-26T11:54:35.797Z,99884.47
2022-12-26T11:59:32.189Z,99891.59
2022-12-26T12:04:28.500Z,99884.75
2022-12-26T12:09:40.293Z,99884.97
2022-12-26T12:15:01.575Z,99890.69
2022-12-26T12:20:07.032Z,99896.88
2022-12-26T12:25:37.500Z,99894.38
2022-12-26T12:30:47.185Z,99880.94
2022-12-26T12:36:03.124Z,99873.72
2022-12-26T12:41:06.560Z,99874.56
2022-12-26T12:46:08.667Z,99878.44
2022-12-26T12:51:27.106Z,99882.91
2022-12-26T12:56:30.949Z,99873.25
2022-12-26T13:01:35.414Z,99875.63
2022-12-26T13:06:43.515Z,99879.03
2022-12-26T13:11:51.082Z,99866.69
2022-12-26T13:16:55.573Z,99875.63
2022-12-26T13:21:57.507Z,99860.75
2022-12-26T13:27:00.418Z,99894.50
2022-12-26T13:31:59.626Z,99924.91
2022-12-26T13:36:58.309Z,99920.78
2022-12-26T13:42:13.484Z,99928.59
2022-12-26T13:47:38.795Z,99942.69
2022-12-26T13:52:40.097Z,99960.47
2022-12-26T13:57:42.646Z,99985.44
2022-12-26T14:03:17.347Z,99990.09
2022-12-26T14:08:29.554Z,99999.03
2022-12-26T14:13:36.694Z,100009.50
2022-12-26T14:18:32.971Z,100027.13
2022-12-26T14:23:45.980Z,100041.91
2022-12-26T14:28:54.572Z,100053.06
2022-12-26T14:34:05.437Z,100051.69
2022-12-26T14:39:32.635Z,100060.31
2022-12-26T14:44:28.922Z,100065.44
2022-12-26T14:49:38.532Z,100092.91
2022-12-26T14:54:37.622Z,100103.78
2022-12-26T14:59:34.724Z,100111.97
2022-12-26T15:04:52.820Z,100110.97
2022-12-26T15:09:54.924Z,100105.44
2022-12-26T15:15:19.211Z,100114.66
2022-12-26T15:20:37.836Z,100122.03
2022-12-26T15:26:03.356Z,100117.69
2022-12-26T15:31:18.748Z,100143.25
2022-12-26T15:36:49.575Z,100156.63
2022-12-26T15:41:47.351Z,100157.56
2022-12-26T15:46:53.315Z,100167.53
2022-12-26T15:51:59.350Z,100160.75
2022-12-26T15:57:04.608Z,100168.69
2022-12-26T16:02:01.561Z,100178.28
2022-12-26T16:07:04.354Z,100201.31
2022-12-26T16:12:01.265Z,100206.94
2022-12-26T16:17:20.347Z,100213.91
2022-12-26T16:22:48.514Z,100214.09
2022-12-26T16:27:47.662Z,100215.91
2022-12-26T16:32:45.110Z,100216.75
2022-12-26T16:37:42.849Z,100231.63
2022-12-26T16:42:42.564Z,100238.59
2022-12-26T16:47:39.637Z,100235.97
2022-12-26T16:52:45.926Z,100254.44
2022-12-26T16:57:43.436Z,100248.97
2022-12-26T17:02:47.068Z,100253.22
2022-12-26T17:07:46.413Z,100250.66
2022-12-26T17:12:47.235Z,100256.63
2022-12-26T17:17:46.050Z,100273.97
2022-12-26T17:22:42.344Z,100280.75
2022-12-26T17:27:38.664Z,100280.75
2022-12-26T17:32:45.149Z,100290.56
2022-12-26T17:37:42.528Z,100295.00
2022-12-26T17:42:51.764Z,100312.47
2022-12-26T17:47:51.380Z,100310.88
2022-12-26T17:52:47.963Z,100310.28
2022-12-26T17:57:44.314Z,100320.72
2022-12-26T18:02:40.733Z,100325.09
2022-12-26T18:07:37.465Z,100315.13
2022-12-26T18:12:33.987Z,100327.81
2022-12-26T18:17:33.562Z,100341.31
2022-12-26T18:22:30.102Z,100347.19
2022-12-26T18:27:31.415Z,100352.94
2022-12-26T18:32:33.450Z,100368.69
2022-12-26T18:37:30.233Z,100383.16
2022-12-26T18:42:27.287Z,100382.88
2022-12-26T18:47:23.873Z,100384.88
2022-12-26T18:52:20.254Z,100382.19
2022-12-26T18:57:20.118Z,100395.56
2022-12-26T19:02:19.162Z,100409.50
2022-12-26T19:07:17.428Z,100415.78
2022-12-26T19:12:14.742Z,100419.56
2022-12-26T19:17:11.135Z,100425.16
2022-12-26T19:22:07.871Z,100439.78
2022-12-26T19:27:04.371Z,100450.84
2022-12-26T19:32:00.821Z,100469.56
2022-12-26T19:36:57.258Z,100469.88
2022-12-26T19:41:53.581Z,100491.13
2022-12-26T19:46:49.920Z,100508.97
2022-12-26T19:52:06.243Z,100504.66
2022-12-26T19:57:02.651Z,100505.88
2022-12-26T20:01:59.326Z,100517.03
2022-12-26T20:06:59.344Z,100533.47
2022-12-26T20:11:56.454Z,100543.22
2022-12-26T20:17:07.240Z,100553.97
2022-12-26T20:22:05.195Z,100554.81
2022-12-26T20:27:02.433Z,100560.72
2022-12-26T20:31:58.786Z,100570.97
2022-12-26T20:36:55.116Z,100572.91
2022-12-26T20:41:51.490Z,100582.59
2022-12-26T20:46:48.261Z,100581.84
2022-12-26T20:51:45.292Z,100589.97
2022-12-26T20:56:42.255Z,100598.22
2022-12-26T21:01:39.805Z,100594.88
2022-12-26T21:06:37.785Z,100593.47
2022-12-26T21:11:38.013Z,100613.66
2022-12-26T21:16:37.344Z,100606.03
2022-12-26T21:21:36.217Z,100608.81
2022-12-26T21:26:34.601Z,100620.91
2022-12-26T21:31:32.213Z,100625.88
2022-12-26T21:36:29.761Z,100631.50
2022-12-26T21:41:26.106Z,100639.00
2022-12-26T21:46:22.567Z,100661.75
2022-12-26T21:51:21.636Z,100665.16
2022-12-26T21:56:18.378Z,100661.63
2022-12-26T22:01:20.193Z,100655.50
2022-12-26T22:06:16.659Z,100659.91
2022-12-26T22:11:36.232Z,100665.97
2022-12-26T22:16:33.595Z,100664.31
2022-12-26T22:21:29.931Z,100673.97
2022-12-26T22:26:28.700Z,100680.94
2022-12-26T22:31:32.127Z,100681.94
2022-12-26T22:36:29.865Z,100680.34
2022-12-26T22:41:27.178Z,100692.34
2022-12-26T22:46:24.143Z,100695.97
2022-12-26T22:51:24.203Z,100692.81
2022-12-26T22:56:20.709Z,100707.06
2022-12-26T23:01:19.029Z,100719.78
2022-12-26T23:06:30.980Z,100718.19
2022-12-26T23:11:34.802Z,100711.56
2022-12-26T23:16:41.418Z,100720.34
2022-12-26T23:21:39.726Z,100725.59
2022-12-26T23:26:36.164Z,100725.59
2022-12-26T23:31:32.563Z,100731.75
2022-12-26T23:36:28.965Z,100737.25
2022-12-26T23:41:25.291Z,100729.13
2022-12-26T23:46:21.697Z,100733.34
2022-12-26T23:51:18.701Z,100726.81
2022-12-26T23:56:15.100Z,100731.41
